sensor_id;sensor_type;location;lat;lon;timestamp;P1;durP1;ratioP1;P2;durP2;ratioP2
8159;SDS011;27404;52.398;9.646;2023-05-07T00:00:32;27.73;;;17.13;;
8159;SDS011;27404;52.398;9.646;2023-05-07T00:02:58;23.77;;;16.53;;
8159;SDS011;27404;52.398;9.646;2023-05-07T00:05:24;24.27;;;15.43;;
8159;SDS011;27404;52.398;9.646;2023-05-07T00:07:49;23.13;;;15.70;;
8159;SDS011;27404;52.398;9.646;2023-05-07T00:10:15;23.20;;;16.07;;
8159;SDS011;27404;52.398;9.646;2023-05-07T00:12:40;26.50;;;18.17;;
8159;SDS011;27404;52.398;9.646;2023-05-07T00:15:06;25.40;;;16.60;;
8159;SDS011;27404;52.398;9.646;2023-05-07T00:17:32;27.13;;;17.20;;
8159;SDS011;27404;52.398;9.646;2023-05-07T00:19:58;22.83;;;16.77;;
8159;SDS011;27404;52.398;9.646;2023-05-07T00:22:24;24.30;;;16.33;;
8159;SDS011;27404;52.398;9.646;2023-05-07T00:24:49;24.73;;;16.87;;
8159;SDS011;27404;52.398;9.646;2023-05-07T00:27:15;26.57;;;17.03;;
8159;SDS011;27404;52.398;9.646;2023-05-07T00:29:41;26.13;;;17.10;;
8159;SDS011;27404;52.398;9.646;2023-05-07T00:32:06;28.20;;;18.27;;
8159;SDS011;27404;52.398;9.646;2023-05-07T00:34:33;28.20;;;17.37;;
8159;SDS011;27404;52.398;9.646;2023-05-07T00:36:58;25.90;;;17.50;;
8159;SDS011;27404;52.398;9.646;2023-05-07T00:39:23;26.60;;;17.67;;
8159;SDS011;27404;52.398;9.646;2023-05-07T00:41:49;24.80;;;16.33;;
8159;SDS011;27404;52.398;9.646;2023-05-07T00:44:16;26.00;;;16.90;;
8159;SDS011;27404;52.398;9.646;2023-05-07T00:46:43;26.03;;;16.70;;
8159;SDS011;27404;52.398;9.646;2023-05-07T00:49:09;27.53;;;17.10;;
8159;SDS011;27404;52.398;9.646;2023-05-07T00:51:36;25.03;;;16.73;;
8159;SDS011;27404;52.398;9.646;2023-05-07T00:54:02;25.13;;;16.43;;
8159;SDS011;27404;52.398;9.646;2023-05-07T00:56:28;23.97;;;16.20;;
8159;SDS011;27404;52.398;9.646;2023-05-07T00:58:54;26.37;;;17.07;;
8159;SDS011;27404;52.398;9.646;2023-05-07T01:01:19;27.60;;;17.17;;
8159;SDS011;27404;52.398;9.646;2023-05-07T01:03:45;27.33;;;17.00;;
8159;SDS011;27404;52.398;9.646;2023-05-07T01:06:10;24.27;;;17.20;;
8159;SDS011;27404;52.398;9.646;2023-05-07T01:08:38;27.57;;;17.70;;
8159;SDS011;27404;52.398;9.646;2023-05-07T01:11:06;26.73;;;17.33;;
8159;SDS011;27404;52.398;9.646;2023-05-07T01:13:33;26.30;;;17.83;;
8159;SDS011;27404;52.398;9.646;2023-05-07T01:15:59;31.27;;;19.03;;
8159;SDS011;27404;52.398;9.646;2023-05-07T01:18:25;30.10;;;17.50;;
8159;SDS011;27404;52.398;9.646;2023-05-07T01:20:51;28.30;;;16.73;;
8159;SDS011;27404;52.398;9.646;2023-05-07T01:23:17;28.67;;;17.20;;
8159;SDS011;27404;52.398;9.646;2023-05-07T01:25:50;27.83;;;17.90;;
8159;SDS011;27404;52.398;9.646;2023-05-07T01:28:17;27.77;;;17.87;;
8159;SDS011;27404;52.398;9.646;2023-05-07T01:30:42;29.33;;;18.30;;
8159;SDS011;27404;52.398;9.646;2023-05-07T01:33:13;31.60;;;20.07;;
8159;SDS011;27404;52.398;9.646;2023-05-07T01:35:41;29.93;;;18.17;;
8159;SDS011;27404;52.398;9.646;2023-05-07T01:38:11;30.00;;;19.00;;
8159;SDS011;27404;52.398;9.646;2023-05-07T01:40:37;29.07;;;18.77;;
8159;SDS011;27404;52.398;9.646;2023-05-07T01:43:03;32.10;;;19.17;;
8159;SDS011;27404;52.398;9.646;2023-05-07T01:45:30;31.67;;;18.60;;
8159;SDS011;27404;52.398;9.646;2023-05-07T01:48:01;31.87;;;19.00;;
8159;SDS011;27404;52.398;9.646;2023-05-07T01:50:28;27.30;;;18.43;;
8159;SDS011;27404;52.398;9.646;2023-05-07T01:52:54;29.67;;;19.33;;
8159;SDS011;27404;52.398;9.646;2023-05-07T01:55:20;29.23;;;18.67;;
8159;SDS011;27404;52.398;9.646;2023-05-07T01:57:45;36.97;;;19.53;;
8159;SDS011;27404;52.398;9.646;2023-05-07T02:00:11;32.37;;;19.47;;
8159;SDS011;27404;52.398;9.646;2023-05-07T02:02:37;34.53;;;19.87;;
8159;SDS011;27404;52.398;9.646;2023-05-07T02:05:03;27.60;;;18.27;;
8159;SDS011;27404;52.398;9.646;2023-05-07T02:07:29;33.77;;;19.10;;
8159;SDS011;27404;52.398;9.646;2023-05-07T02:09:55;29.37;;;18.50;;
8159;SDS011;27404;52.398;9.646;2023-05-07T02:12:20;26.20;;;17.27;;
8159;SDS011;27404;52.398;9.646;2023-05-07T02:14:46;24.40;;;16.37;;
8159;SDS011;27404;52.398;9.646;2023-05-07T02:17:12;23.93;;;16.03;;
8159;SDS011;27404;52.398;9.646;2023-05-07T02:19:37;22.63;;;14.77;;
8159;SDS011;27404;52.398;9.646;2023-05-07T02:22:03;23.00;;;14.53;;
8159;SDS011;27404;52.398;9.646;2023-05-07T02:24:28;21.37;;;13.13;;
8159;SDS011;27404;52.398;9.646;2023-05-07T02:26:53;22.47;;;13.83;;
8159;SDS011;27404;52.398;9.646;2023-05-07T02:29:19;19.27;;;13.07;;
8159;SDS011;27404;52.398;9.646;2023-05-07T02:31:44;20.93;;;12.57;;
8159;SDS011;27404;52.398;9.646;2023-05-07T02:34:10;18.70;;;12.77;;
8159;SDS011;27404;52.398;9.646;2023-05-07T02:36:35;17.70;;;11.20;;
8159;SDS011;27404;52.398;9.646;2023-05-07T02:39:01;19.67;;;11.80;;
8159;SDS011;27404;52.398;9.646;2023-05-07T02:41:27;18.57;;;10.90;;
8159;SDS011;27404;52.398;9.646;2023-05-07T02:43:53;17.20;;;10.57;;
8159;SDS011;27404;52.398;9.646;2023-05-07T02:46:18;15.93;;;11.03;;
8159;SDS011;27404;52.398;9.646;2023-05-07T02:48:44;16.23;;;10.50;;
8159;SDS011;27404;52.398;9.646;2023-05-07T02:51:09;13.93;;;9.57;;
8159;SDS011;27404;52.398;9.646;2023-05-07T02:53:35;15.80;;;9.83;;
8159;SDS011;27404;52.398;9.646;2023-05-07T02:56:01;15.07;;;10.03;;
8159;SDS011;27404;52.398;9.646;2023-05-07T02:58:27;14.33;;;9.63;;
8159;SDS011;27404;52.398;9.646;2023-05-07T03:00:53;14.10;;;9.57;;
8159;SDS011;27404;52.398;9.646;2023-05-07T03:03:21;15.70;;;9.73;;
8159;SDS011;27404;52.398;9.646;2023-05-07T03:05:47;15.50;;;10.20;;
8159;SDS011;27404;52.398;9.646;2023-05-07T03:08:12;15.77;;;10.50;;
8159;SDS011;27404;52.398;9.646;2023-05-07T03:10:38;16.37;;;10.87;;
8159;SDS011;27404;52.398;9.646;2023-05-07T03:13:04;16.80;;;10.80;;
8159;SDS011;27404;52.398;9.646;2023-05-07T03:15:29;15.40;;;9.40;;
8159;SDS011;27404;52.398;9.646;2023-05-07T03:17:55;13.43;;;8.47;;
8159;SDS011;27404;52.398;9.646;2023-05-07T03:20:21;12.73;;;8.53;;
8159;SDS011;27404;52.398;9.646;2023-05-07T03:22:46;16.80;;;9.90;;
8159;SDS011;27404;52.398;9.646;2023-05-07T03:25:12;14.33;;;9.70;;
8159;SDS011;27404;52.398;9.646;2023-05-07T03:27:39;15.20;;;10.20;;
8159;SDS011;27404;52.398;9.646;2023-05-07T03:30:04;15.13;;;9.47;;
8159;SDS011;27404;52.398;9.646;2023-05-07T03:32:31;13.70;;;9.60;;
8159;SDS011;27404;52.398;9.646;2023-05-07T03:34:57;14.77;;;9.60;;
8159;SDS011;27404;52.398;9.646;2023-05-07T03:37:22;13.93;;;9.30;;
8159;SDS011;27404;52.398;9.646;2023-05-07T03:39:48;14.77;;;9.67;;
8159;SDS011;27404;52.398;9.646;2023-05-07T03:42:14;14.20;;;9.63;;
8159;SDS011;27404;52.398;9.646;2023-05-07T03:44:40;14.83;;;10.33;;
8159;SDS011;27404;52.398;9.646;2023-05-07T03:47:05;14.63;;;9.97;;
8159;SDS011;27404;52.398;9.646;2023-05-07T03:49:31;14.87;;;11.00;;
8159;SDS011;27404;52.398;9.646;2023-05-07T03:51:56;14.87;;;9.20;;
8159;SDS011;27404;52.398;9.646;2023-05-07T03:54:21;14.13;;;9.50;;
8159;SDS011;27404;52.398;9.646;2023-05-07T03:56:47;13.83;;;9.60;;
8159;SDS011;27404;52.398;9.646;2023-05-07T03:59:13;15.13;;;9.50;;
8159;SDS011;27404;52.398;9.646;2023-05-07T04:01:39;16.20;;;10.20;;
8159;SDS011;27404;52.398;9.646;2023-05-07T04:04:05;14.60;;;10.07;;
8159;SDS011;27404;52.398;9.646;2023-05-07T04:06:30;13.20;;;9.47;;
8159;SDS011;27404;52.398;9.646;2023-05-07T04:08:56;15.57;;;10.50;;
8159;SDS011;27404;52.398;9.646;2023-05-07T04:11:21;14.30;;;10.00;;
8159;SDS011;27404;52.398;9.646;2023-05-07T04:13:47;13.57;;;9.87;;
8159;SDS011;27404;52.398;9.646;2023-05-07T04:16:12;13.90;;;10.13;;
8159;SDS011;27404;52.398;9.646;2023-05-07T04:18:38;15.30;;;9.53;;
8159;SDS011;27404;52.398;9.646;2023-05-07T04:21:04;15.50;;;9.70;;
8159;SDS011;27404;52.398;9.646;2023-05-07T04:23:29;13.63;;;8.87;;
8159;SDS011;27404;52.398;9.646;2023-05-07T04:25:55;15.50;;;9.60;;
8159;SDS011;27404;52.398;9.646;2023-05-07T04:28:21;11.93;;;9.17;;
8159;SDS011;27404;52.398;9.646;2023-05-07T04:30:46;14.67;;;9.00;;
8159;SDS011;27404;52.398;9.646;2023-05-07T04:33:13;14.40;;;9.50;;
8159;SDS011;27404;52.398;9.646;2023-05-07T04:35:39;14.20;;;9.20;;
8159;SDS011;27404;52.398;9.646;2023-05-07T04:38:05;14.07;;;8.87;;
8159;SDS011;27404;52.398;9.646;2023-05-07T04:40:30;12.03;;;8.33;;
8159;SDS011;27404;52.398;9.646;2023-05-07T04:42:56;14.50;;;9.23;;
8159;SDS011;27404;52.398;9.646;2023-05-07T04:45:21;14.17;;;8.93;;
8159;SDS011;27404;52.398;9.646;2023-05-07T04:47:47;13.03;;;9.60;;
8159;SDS011;27404;52.398;9.646;2023-05-07T04:50:12;13.63;;;8.93;;
8159;SDS011;27404;52.398;9.646;2023-05-07T04:52:38;13.87;;;9.87;;
8159;SDS011;27404;52.398;9.646;2023-05-07T04:55:03;13.53;;;9.00;;
8159;SDS011;27404;52.398;9.646;2023-05-07T04:57:29;13.33;;;9.37;;
8159;SDS011;27404;52.398;9.646;2023-05-07T04:59:55;13.97;;;10.03;;
8159;SDS011;27404;52.398;9.646;2023-05-07T05:02:20;13.20;;;10.27;;
8159;SDS011;27404;52.398;9.646;2023-05-07T05:04:45;15.83;;;10.73;;
8159;SDS011;27404;52.398;9.646;2023-05-07T05:07:11;13.90;;;9.90;;
8159;SDS011;27404;52.398;9.646;2023-05-07T05:09:36;15.67;;;10.43;;
8159;SDS011;27404;52.398;9.646;2023-05-07T05:12:02;13.83;;;10.17;;
8159;SDS011;27404;52.398;9.646;2023-05-07T05:14:27;14.03;;;9.97;;
8159;SDS011;27404;52.398;9.646;2023-05-07T05:16:53;14.27;;;9.87;;
8159;SDS011;27404;52.398;9.646;2023-05-07T05:19:18;15.40;;;9.80;;
8159;SDS011;27404;52.398;9.646;2023-05-07T05:21:44;14.43;;;9.67;;
8159;SDS011;27404;52.398;9.646;2023-05-07T05:24:10;13.87;;;9.00;;
8159;SDS011;27404;52.398;9.646;2023-05-07T05:26:35;14.87;;;9.50;;
8159;SDS011;27404;52.398;9.646;2023-05-07T05:29:00;16.07;;;8.83;;
8159;SDS011;27404;52.398;9.646;2023-05-07T05:31:26;13.90;;;9.23;;
8159;SDS011;27404;52.398;9.646;2023-05-07T05:33:51;12.80;;;8.87;;
8159;SDS011;27404;52.398;9.646;2023-05-07T05:36:17;12.67;;;8.83;;
8159;SDS011;27404;52.398;9.646;2023-05-07T05:38:43;12.13;;;8.37;;
8159;SDS011;27404;52.398;9.646;2023-05-07T05:41:09;11.10;;;7.93;;
8159;SDS011;27404;52.398;9.646;2023-05-07T05:43:35;10.70;;;7.80;;
8159;SDS011;27404;52.398;9.646;2023-05-07T05:46:00;12.63;;;8.20;;
8159;SDS011;27404;52.398;9.646;2023-05-07T05:48:26;10.13;;;7.80;;
8159;SDS011;27404;52.398;9.646;2023-05-07T05:50:51;13.60;;;8.77;;
8159;SDS011;27404;52.398;9.646;2023-05-07T05:53:16;12.77;;;7.90;;
8159;SDS011;27404;52.398;9.646;2023-05-07T05:55:42;12.07;;;8.07;;
8159;SDS011;27404;52.398;9.646;2023-05-07T05:58:08;12.10;;;7.90;;
8159;SDS011;27404;52.398;9.646;2023-05-07T06:00:34;11.83;;;8.43;;
8159;SDS011;27404;52.398;9.646;2023-05-07T06:03:00;11.33;;;8.53;;
8159;SDS011;27404;52.398;9.646;2023-05-07T06:05:25;10.67;;;7.87;;
8159;SDS011;27404;52.398;9.646;2023-05-07T06:07:51;10.83;;;7.70;;
8159;SDS011;27404;52.398;9.646;2023-05-07T06:10:16;14.27;;;7.80;;
8159;SDS011;27404;52.398;9.646;2023-05-07T06:12:41;10.47;;;7.93;;
8159;SDS011;27404;52.398;9.646;2023-05-07T06:15:07;11.77;;;8.03;;
8159;SDS011;27404;52.398;9.646;2023-05-07T06:17:32;11.03;;;7.57;;
8159;SDS011;27404;52.398;9.646;2023-05-07T06:19:59;11.40;;;7.77;;
8159;SDS011;27404;52.398;9.646;2023-05-07T06:22:24;9.97;;;7.47;;
8159;SDS011;27404;52.398;9.646;2023-05-07T06:24:50;11.50;;;7.83;;
8159;SDS011;27404;52.398;9.646;2023-05-07T06:27:15;10.60;;;6.97;;
8159;SDS011;27404;52.398;9.646;2023-05-07T06:29:40;9.53;;;6.87;;
8159;SDS011;27404;52.398;9.646;2023-05-07T06:32:09;10.40;;;7.73;;
8159;SDS011;27404;52.398;9.646;2023-05-07T06:34:36;11.30;;;7.50;;
8159;SDS011;27404;52.398;9.646;2023-05-07T06:37:02;9.77;;;7.33;;
8159;SDS011;27404;52.398;9.646;2023-05-07T06:39:27;9.93;;;7.20;;
8159;SDS011;27404;52.398;9.646;2023-05-07T06:41:53;9.20;;;7.43;;
8159;SDS011;27404;52.398;9.646;2023-05-07T06:44:18;9.23;;;6.97;;
8159;SDS011;27404;52.398;9.646;2023-05-07T06:46:44;9.23;;;6.50;;
8159;SDS011;27404;52.398;9.646;2023-05-07T06:49:10;9.23;;;6.60;;
8159;SDS011;27404;52.398;9.646;2023-05-07T06:51:36;8.73;;;6.40;;
8159;SDS011;27404;52.398;9.646;2023-05-07T06:54:01;7.17;;;5.93;;
8159;SDS011;27404;52.398;9.646;2023-05-07T06:56:27;8.43;;;6.23;;
8159;SDS011;27404;52.398;9.646;2023-05-07T06:58:52;8.33;;;6.73;;
8159;SDS011;27404;52.398;9.646;2023-05-07T07:01:18;8.83;;;5.80;;
8159;SDS011;27404;52.398;9.646;2023-05-07T07:03:43;8.13;;;6.33;;
8159;SDS011;27404;52.398;9.646;2023-05-07T07:06:08;10.37;;;7.43;;
8159;SDS011;27404;52.398;9.646;2023-05-07T07:08:34;9.53;;;7.20;;
8159;SDS011;27404;52.398;9.646;2023-05-07T07:11:00;8.87;;;6.57;;
8159;SDS011;27404;52.398;9.646;2023-05-07T07:13:25;9.43;;;6.60;;
8159;SDS011;27404;52.398;9.646;2023-05-07T07:15:51;8.50;;;6.90;;
8159;SDS011;27404;52.398;9.646;2023-05-07T07:18:18;8.80;;;7.23;;
8159;SDS011;27404;52.398;9.646;2023-05-07T07:20:43;10.10;;;7.57;;
8159;SDS011;27404;52.398;9.646;2023-05-07T07:23:09;9.60;;;8.20;;
8159;SDS011;27404;52.398;9.646;2023-05-07T07:25:35;10.67;;;8.10;;
8159;SDS011;27404;52.398;9.646;2023-05-07T07:28:00;12.33;;;8.50;;
8159;SDS011;27404;52.398;9.646;2023-05-07T07:30:26;11.43;;;8.13;;
8159;SDS011;27404;52.398;9.646;2023-05-07T07:32:51;11.23;;;8.83;;
8159;SDS011;27404;52.398;9.646;2023-05-07T07:35:17;13.90;;;9.73;;
8159;SDS011;27404;52.398;9.646;2023-05-07T07:37:43;11.17;;;9.07;;
8159;SDS011;27404;52.398;9.646;2023-05-07T07:40:08;10.93;;;9.20;;
8159;SDS011;27404;52.398;9.646;2023-05-07T07:42:34;12.37;;;8.53;;
8159;SDS011;27404;52.398;9.646;2023-05-07T07:45:00;11.50;;;9.50;;
8159;SDS011;27404;52.398;9.646;2023-05-07T07:47:25;11.37;;;9.43;;
8159;SDS011;27404;52.398;9.646;2023-05-07T07:49:51;11.43;;;8.93;;
8159;SDS011;27404;52.398;9.646;2023-05-07T07:52:17;12.17;;;9.27;;
8159;SDS011;27404;52.398;9.646;2023-05-07T07:54:44;12.40;;;9.73;;
8159;SDS011;27404;52.398;9.646;2023-05-07T07:57:09;10.40;;;8.93;;
8159;SDS011;27404;52.398;9.646;2023-05-07T07:59:35;12.60;;;9.53;;
8159;SDS011;27404;52.398;9.646;2023-05-07T08:02:00;9.10;;;7.77;;
8159;SDS011;27404;52.398;9.646;2023-05-07T08:04:26;11.27;;;8.90;;
8159;SDS011;27404;52.398;9.646;2023-05-07T08:06:51;9.97;;;8.57;;
8159;SDS011;27404;52.398;9.646;2023-05-07T08:09:19;9.17;;;7.43;;
8159;SDS011;27404;52.398;9.646;2023-05-07T08:11:45;8.93;;;7.67;;
8159;SDS011;27404;52.398;9.646;2023-05-07T08:14:11;9.57;;;8.57;;
8159;SDS011;27404;52.398;9.646;2023-05-07T08:16:36;10.63;;;8.30;;
8159;SDS011;27404;52.398;9.646;2023-05-07T08:19:02;8.50;;;7.57;;
8159;SDS011;27404;52.398;9.646;2023-05-07T08:21:28;9.97;;;8.33;;
8159;SDS011;27404;52.398;9.646;2023-05-07T08:23:53;10.57;;;8.30;;
8159;SDS011;27404;52.398;9.646;2023-05-07T08:26:19;11.20;;;8.27;;
8159;SDS011;27404;52.398;9.646;2023-05-07T08:28:45;8.87;;;7.63;;
8159;SDS011;27404;52.398;9.646;2023-05-07T08:31:10;8.93;;;7.40;;
8159;SDS011;27404;52.398;9.646;2023-05-07T08:33:36;9.00;;;7.17;;
8159;SDS011;27404;52.398;9.646;2023-05-07T08:36:03;8.37;;;7.30;;
8159;SDS011;27404;52.398;9.646;2023-05-07T08:38:29;7.40;;;6.63;;
8159;SDS011;27404;52.398;9.646;2023-05-07T08:40:55;8.17;;;6.83;;
8159;SDS011;27404;52.398;9.646;2023-05-07T08:43:20;11.17;;;7.83;;
8159;SDS011;27404;52.398;9.646;2023-05-07T08:45:48;9.73;;;7.97;;
8159;SDS011;27404;52.398;9.646;2023-05-07T08:48:18;8.70;;;7.57;;
8159;SDS011;27404;52.398;9.646;2023-05-07T08:50:49;9.77;;;7.13;;
8159;SDS011;27404;52.398;9.646;2023-05-07T08:53:15;9.20;;;7.47;;
8159;SDS011;27404;52.398;9.646;2023-05-07T08:55:41;11.97;;;7.43;;
8159;SDS011;27404;52.398;9.646;2023-05-07T08:58:07;9.00;;;7.23;;
8159;SDS011;27404;52.398;9.646;2023-05-07T09:00:32;10.73;;;8.27;;
8159;SDS011;27404;52.398;9.646;2023-05-07T09:02:58;10.90;;;8.20;;
8159;SDS011;27404;52.398;9.646;2023-05-07T09:05:25;10.23;;;8.40;;
8159;SDS011;27404;52.398;9.646;2023-05-07T09:07:50;11.07;;;8.73;;
8159;SDS011;27404;52.398;9.646;2023-05-07T09:10:16;11.53;;;9.03;;
8159;SDS011;27404;52.398;9.646;2023-05-07T09:12:41;9.83;;;7.60;;
8159;SDS011;27404;52.398;9.646;2023-05-07T09:15:07;8.53;;;7.37;;
8159;SDS011;27404;52.398;9.646;2023-05-07T09:17:33;8.63;;;7.27;;
8159;SDS011;27404;52.398;9.646;2023-05-07T09:20:02;7.87;;;7.00;;
8159;SDS011;27404;52.398;9.646;2023-05-07T09:22:31;8.40;;;7.40;;
8159;SDS011;27404;52.398;9.646;2023-05-07T09:24:57;7.93;;;6.80;;
8159;SDS011;27404;52.398;9.646;2023-05-07T09:27:23;9.73;;;7.77;;
8159;SDS011;27404;52.398;9.646;2023-05-07T09:29:50;9.10;;;7.57;;
8159;SDS011;27404;52.398;9.646;2023-05-07T09:32:15;9.07;;;7.20;;
8159;SDS011;27404;52.398;9.646;2023-05-07T09:34:41;9.60;;;7.77;;
8159;SDS011;27404;52.398;9.646;2023-05-07T09:37:07;10.23;;;7.87;;
8159;SDS011;27404;52.398;9.646;2023-05-07T09:39:45;10.07;;;8.33;;
8159;SDS011;27404;52.398;9.646;2023-05-07T09:42:11;10.20;;;7.63;;
8159;SDS011;27404;52.398;9.646;2023-05-07T09:44:39;8.73;;;7.63;;
8159;SDS011;27404;52.398;9.646;2023-05-07T09:47:06;10.07;;;8.57;;
8159;SDS011;27404;52.398;9.646;2023-05-07T09:49:33;8.80;;;7.37;;
8159;SDS011;27404;52.398;9.646;2023-05-07T09:52:02;10.33;;;8.07;;
8159;SDS011;27404;52.398;9.646;2023-05-07T09:54:31;8.50;;;7.03;;
8159;SDS011;27404;52.398;9.646;2023-05-07T09:56:58;9.20;;;7.43;;
8159;SDS011;27404;52.398;9.646;2023-05-07T09:59:27;9.40;;;7.83;;
8159;SDS011;27404;52.398;9.646;2023-05-07T10:01:56;10.00;;;8.03;;
8159;SDS011;27404;52.398;9.646;2023-05-07T10:04:24;9.33;;;7.60;;
8159;SDS011;27404;52.398;9.646;2023-05-07T10:06:51;9.77;;;7.67;;
8159;SDS011;27404;52.398;9.646;2023-05-07T10:09:18;10.37;;;7.80;;
8159;SDS011;27404;52.398;9.646;2023-05-07T10:11:44;8.47;;;7.43;;
8159;SDS011;27404;52.398;9.646;2023-05-07T10:14:10;9.00;;;7.67;;
8159;SDS011;27404;52.398;9.646;2023-05-07T10:16:36;10.07;;;7.97;;
8159;SDS011;27404;52.398;9.646;2023-05-07T10:19:06;9.20;;;8.03;;
8159;SDS011;27404;52.398;9.646;2023-05-07T10:21:36;8.67;;;7.70;;
8159;SDS011;27404;52.398;9.646;2023-05-07T10:24:04;9.77;;;8.47;;
8159;SDS011;27404;52.398;9.646;2023-05-07T10:26:38;10.33;;;8.23;;
8159;SDS011;27404;52.398;9.646;2023-05-07T10:29:11;10.03;;;8.27;;
8159;SDS011;27404;52.398;9.646;2023-05-07T10:34:23;10.50;;;7.77;;
8159;SDS011;27404;52.398;9.646;2023-05-07T10:36:51;8.67;;;7.67;;
8159;SDS011;27404;52.398;9.646;2023-05-07T10:39:19;10.17;;;7.97;;
8159;SDS011;27404;52.398;9.646;2023-05-07T10:41:45;10.73;;;8.27;;
8159;SDS011;27404;52.398;9.646;2023-05-07T10:44:24;8.97;;;8.00;;
8159;SDS011;27404;52.398;9.646;2023-05-07T10:50:21;9.30;;;7.93;;
8159;SDS011;27404;52.398;9.646;2023-05-07T10:52:45;8.97;;;7.87;;
8159;SDS011;27404;52.398;9.646;2023-05-07T10:55:47;13.33;;;8.33;;
8159;SDS011;27404;52.398;9.646;2023-05-07T10:58:24;12.97;;;8.00;;
8159;SDS011;27404;52.398;9.646;2023-05-07T11:00:55;8.90;;;7.27;;
8159;SDS011;27404;52.398;9.646;2023-05-07T11:03:25;9.67;;;7.67;;
8159;SDS011;27404;52.398;9.646;2023-05-07T11:06:10;8.10;;;7.00;;
8159;SDS011;27404;52.398;9.646;2023-05-07T11:08:56;7.23;;;6.47;;
8159;SDS011;27404;52.398;9.646;2023-05-07T11:17:07;8.23;;;6.83;;
8159;SDS011;27404;52.398;9.646;2023-05-07T11:19:52;7.33;;;6.60;;
8159;SDS011;27404;52.398;9.646;2023-05-07T11:24:56;8.13;;;7.30;;
8159;SDS011;27404;52.398;9.646;2023-05-07T11:27:25;7.97;;;7.00;;
8159;SDS011;27404;52.398;9.646;2023-05-07T11:29:51;9.17;;;7.13;;
8159;SDS011;27404;52.398;9.646;2023-05-07T11:34:57;8.47;;;6.90;;
8159;SDS011;27404;52.398;9.646;2023-05-07T11:37:25;8.87;;;6.47;;
8159;SDS011;27404;52.398;9.646;2023-05-07T11:40:13;6.57;;;5.87;;
8159;SDS011;27404;52.398;9.646;2023-05-07T11:42:39;8.80;;;6.70;;
8159;SDS011;27404;52.398;9.646;2023-05-07T11:45:06;7.10;;;6.27;;
8159;SDS011;27404;52.398;9.646;2023-05-07T11:47:32;8.10;;;5.90;;
8159;SDS011;27404;52.398;9.646;2023-05-07T11:50:03;8.47;;;6.50;;
8159;SDS011;27404;52.398;9.646;2023-05-07T11:52:30;6.50;;;5.83;;
8159;SDS011;27404;52.398;9.646;2023-05-07T11:54:56;7.43;;;5.73;;
8159;SDS011;27404;52.398;9.646;2023-05-07T11:57:23;7.03;;;6.00;;
8159;SDS011;27404;52.398;9.646;2023-05-07T11:59:56;10.43;;;6.50;;
8159;SDS011;27404;52.398;9.646;2023-05-07T12:02:23;8.50;;;6.90;;
8159;SDS011;27404;52.398;9.646;2023-05-07T12:04:53;8.27;;;6.70;;
8159;SDS011;27404;52.398;9.646;2023-05-07T12:07:20;7.47;;;6.10;;
8159;SDS011;27404;52.398;9.646;2023-05-07T12:09:46;6.80;;;5.83;;
8159;SDS011;27404;52.398;9.646;2023-05-07T12:12:12;6.50;;;5.43;;
8159;SDS011;27404;52.398;9.646;2023-05-07T12:14:44;6.93;;;5.40;;
8159;SDS011;27404;52.398;9.646;2023-05-07T12:17:11;5.70;;;5.10;;
8159;SDS011;27404;52.398;9.646;2023-05-07T12:19:39;7.47;;;5.90;;
8159;SDS011;27404;52.398;9.646;2023-05-07T12:22:09;6.07;;;5.10;;
8159;SDS011;27404;52.398;9.646;2023-05-07T12:27:28;7.97;;;5.70;;
8159;SDS011;27404;52.398;9.646;2023-05-07T12:29:56;7.87;;;6.00;;
8159;SDS011;27404;52.398;9.646;2023-05-07T12:32:23;7.53;;;5.90;;
8159;SDS011;27404;52.398;9.646;2023-05-07T12:34:51;6.70;;;5.50;;
8159;SDS011;27404;52.398;9.646;2023-05-07T12:37:17;6.77;;;5.10;;
8159;SDS011;27404;52.398;9.646;2023-05-07T12:40:09;6.07;;;4.53;;
8159;SDS011;27404;52.398;9.646;2023-05-07T12:42:36;5.77;;;4.93;;
8159;SDS011;27404;52.398;9.646;2023-05-07T12:45:09;5.03;;;4.53;;
8159;SDS011;27404;52.398;9.646;2023-05-07T12:47:43;7.60;;;4.90;;
8159;SDS011;27404;52.398;9.646;2023-05-07T12:50:15;5.50;;;4.53;;
8159;SDS011;27404;52.398;9.646;2023-05-07T12:52:42;4.90;;;4.30;;
8159;SDS011;27404;52.398;9.646;2023-05-07T12:55:12;5.57;;;5.00;;
8159;SDS011;27404;52.398;9.646;2023-05-07T12:57:40;5.37;;;4.37;;
8159;SDS011;27404;52.398;9.646;2023-05-07T13:00:07;7.77;;;4.90;;
8159;SDS011;27404;52.398;9.646;2023-05-07T13:02:39;5.60;;;4.90;;
8159;SDS011;27404;52.398;9.646;2023-05-07T13:05:06;5.80;;;4.37;;
8159;SDS011;27404;52.398;9.646;2023-05-07T13:07:32;4.97;;;4.13;;
8159;SDS011;27404;52.398;9.646;2023-05-07T13:09:58;6.17;;;3.90;;
8159;SDS011;27404;52.398;9.646;2023-05-07T13:12:23;5.60;;;4.13;;
8159;SDS011;27404;52.398;9.646;2023-05-07T13:14:48;5.23;;;4.70;;
8159;SDS011;27404;52.398;9.646;2023-05-07T13:17:14;6.17;;;5.27;;
8159;SDS011;27404;52.398;9.646;2023-05-07T13:19:39;6.57;;;4.90;;
8159;SDS011;27404;52.398;9.646;2023-05-07T13:22:05;6.17;;;5.10;;
8159;SDS011;27404;52.398;9.646;2023-05-07T13:24:30;6.50;;;5.77;;
8159;SDS011;27404;52.398;9.646;2023-05-07T13:26:56;6.60;;;5.87;;
8159;SDS011;27404;52.398;9.646;2023-05-07T13:29:21;6.63;;;5.60;;
8159;SDS011;27404;52.398;9.646;2023-05-07T13:31:54;7.03;;;6.13;;
8159;SDS011;27404;52.398;9.646;2023-05-07T13:34:19;5.47;;;4.97;;
8159;SDS011;27404;52.398;9.646;2023-05-07T13:36:45;7.13;;;5.83;;
8159;SDS011;27404;52.398;9.646;2023-05-07T13:39:11;6.97;;;6.20;;
8159;SDS011;27404;52.398;9.646;2023-05-07T13:41:36;5.70;;;5.20;;
8159;SDS011;27404;52.398;9.646;2023-05-07T13:44:02;5.23;;;4.50;;
8159;SDS011;27404;52.398;9.646;2023-05-07T13:46:27;7.23;;;5.50;;
8159;SDS011;27404;52.398;9.646;2023-05-07T13:48:52;6.87;;;5.50;;
8159;SDS011;27404;52.398;9.646;2023-05-07T13:51:18;6.67;;;6.07;;
8159;SDS011;27404;52.398;9.646;2023-05-07T13:53:43;6.93;;;6.23;;
8159;SDS011;27404;52.398;9.646;2023-05-07T13:56:09;7.40;;;6.60;;
8159;SDS011;27404;52.398;9.646;2023-05-07T13:58:34;6.77;;;6.07;;
8159;SDS011;27404;52.398;9.646;2023-05-07T14:01:01;5.90;;;5.30;;
8159;SDS011;27404;52.398;9.646;2023-05-07T14:03:26;7.93;;;6.37;;
8159;SDS011;27404;52.398;9.646;2023-05-07T14:05:52;7.33;;;6.30;;
8159;SDS011;27404;52.398;9.646;2023-05-07T14:08:17;8.70;;;7.30;;
8159;SDS011;27404;52.398;9.646;2023-05-07T14:10:45;8.53;;;6.67;;
8159;SDS011;27404;52.398;9.646;2023-05-07T14:13:11;8.70;;;6.80;;
8159;SDS011;27404;52.398;9.646;2023-05-07T14:15:36;6.97;;;6.20;;
8159;SDS011;27404;52.398;9.646;2023-05-07T14:18:02;6.80;;;5.87;;
8159;SDS011;27404;52.398;9.646;2023-05-07T14:20:28;12.00;;;6.30;;
8159;SDS011;27404;52.398;9.646;2023-05-07T14:22:55;6.63;;;5.40;;
8159;SDS011;27404;52.398;9.646;2023-05-07T14:25:21;8.77;;;6.40;;
8159;SDS011;27404;52.398;9.646;2023-05-07T14:27:46;6.40;;;5.80;;
8159;SDS011;27404;52.398;9.646;2023-05-07T14:30:12;6.07;;;5.40;;
8159;SDS011;27404;52.398;9.646;2023-05-07T14:32:38;9.03;;;6.13;;
8159;SDS011;27404;52.398;9.646;2023-05-07T14:35:03;6.17;;;5.57;;
8159;SDS011;27404;52.398;9.646;2023-05-07T14:37:29;6.43;;;5.73;;
8159;SDS011;27404;52.398;9.646;2023-05-07T14:39:55;6.10;;;5.27;;
8159;SDS011;27404;52.398;9.646;2023-05-07T14:42:20;6.37;;;5.27;;
8159;SDS011;27404;52.398;9.646;2023-05-07T14:44:46;6.90;;;5.00;;
8159;SDS011;27404;52.398;9.646;2023-05-07T14:47:13;7.07;;;5.73;;
8159;SDS011;27404;52.398;9.646;2023-05-07T14:49:40;7.70;;;6.33;;
8159;SDS011;27404;52.398;9.646;2023-05-07T14:52:08;6.10;;;5.23;;
8159;SDS011;27404;52.398;9.646;2023-05-07T14:54:35;8.00;;;6.00;;
8159;SDS011;27404;52.398;9.646;2023-05-07T14:57:01;6.80;;;6.00;;
8159;SDS011;27404;52.398;9.646;2023-05-07T14:59:26;7.60;;;5.90;;
8159;SDS011;27404;52.398;9.646;2023-05-07T15:01:52;6.20;;;5.37;;
8159;SDS011;27404;52.398;9.646;2023-05-07T15:04:18;7.23;;;5.90;;
8159;SDS011;27404;52.398;9.646;2023-05-07T15:06:43;7.67;;;5.73;;